createdAt,value
2018-05-24T00:00:57.473Z,1010.90
2018-05-24T00:01:57.440Z,1010.90
2018-05-24T00:03:50.420Z,1010.92
2018-05-24T00:04:50.363Z,1010.87
2018-05-24T00:06:43.454Z,1010.89
2018-05-24T00:07:43.215Z,1010.89
2018-05-24T00:09:36.190Z,1010.86
2018-05-24T00:10:36.150Z,1010.89
2018-05-24T00:12:28.963Z,1010.89
2018-05-24T00:13:28.931Z,1010.89
2018-05-24T00:15:21.984Z,1010.90
2018-05-24T00:16:21.939Z,1010.91
2018-05-24T00:18:14.938Z,1010.89
2018-05-24T00:19:14.871Z,1010.87
2018-05-24T00:21:07.852Z,1010.88
2018-05-24T00:22:07.865Z,1010.87
2018-05-24T00:24:01.148Z,1010.88
2018-05-24T00:25:00.979Z,1010.90
2018-05-24T00:26:54.016Z,1010.88
2018-05-24T00:27:53.961Z,1010.87
2018-05-24T00:29:46.953Z,1010.82
2018-05-24T00:30:46.900Z,1010.85
2018-05-24T00:32:39.730Z,1010.80
2018-05-24T00:33:39.688Z,1010.77
2018-05-24T00:35:32.601Z,1010.74
2018-05-24T00:36:32.475Z,1010.78
2018-05-24T00:38:25.478Z,1010.73
2018-05-24T00:39:25.436Z,1010.72
2018-05-24T00:41:18.431Z,1010.72
2018-05-24T00:42:18.402Z,1010.69
2018-05-24T00:44:11.467Z,1010.73
2018-05-24T00:45:11.282Z,1010.67
2018-05-24T00:47:04.417Z,1010.67
2018-05-24T00:48:04.258Z,1010.67
2018-05-24T00:49:57.258Z,1010.68
2018-05-24T00:50:57.212Z,1010.68
2018-05-24T00:52:50.269Z,1010.68
2018-05-24T00:53:50.085Z,1010.67
2018-05-24T00:55:43.154Z,1010.64
2018-05-24T00:56:43.043Z,1010.66
2018-05-24T00:58:36.030Z,1010.66
2018-05-24T00:59:36.005Z,1010.65
2018-05-24T01:01:28.844Z,1010.60
2018-05-24T01:02:28.785Z,1010.57
2018-05-24T01:04:21.828Z,1010.56
2018-05-24T01:05:21.600Z,1010.57
2018-05-24T01:07:14.597Z,1010.57
2018-05-24T01:08:14.558Z,1010.56
2018-05-24T01:10:07.612Z,1010.59
2018-05-24T01:11:07.558Z,1010.55
2018-05-24T01:13:00.410Z,1010.55
2018-05-24T01:14:00.393Z,1010.54
2018-05-24T01:15:53.395Z,1010.52
2018-05-24T01:16:53.186Z,1010.51
2018-05-24T01:18:46.191Z,1010.46
2018-05-24T01:19:46.237Z,1010.46
2018-05-24T01:21:39.239Z,1010.42
2018-05-24T01:22:39.192Z,1010.44
2018-05-24T01:24:32.204Z,1010.41
2018-05-24T01:25:32.170Z,1010.42
2018-05-24T01:27:25.215Z,1010.48
2018-05-24T01:28:25.185Z,1010.48
2018-05-24T01:30:18.342Z,1010.45
2018-05-24T01:31:18.269Z,1010.45
2018-05-24T01:33:11.274Z,1010.45
2018-05-24T01:34:11.226Z,1010.44
2018-05-24T01:36:04.079Z,1010.47
2018-05-24T01:37:04.034Z,1010.44
2018-05-24T01:38:57.219Z,1010.48
2018-05-24T01:39:57.182Z,1010.45
2018-05-24T01:41:50.186Z,1010.45
2018-05-24T01:42:50.276Z,1010.47
2018-05-24T01:44:43.397Z,1010.40
2018-05-24T01:45:43.326Z,1010.44
2018-05-24T01:47:36.348Z,1010.44
2018-05-24T01:48:36.295Z,1010.40
2018-05-24T01:50:29.263Z,1010.38
2018-05-24T01:51:29.237Z,1010.42
2018-05-24T01:53:22.332Z,1010.39
2018-05-24T01:54:22.272Z,1010.37
2018-05-24T01:56:15.092Z,1010.35
2018-05-24T01:57:15.066Z,1010.38
2018-05-24T01:59:08.100Z,1010.38
2018-05-24T02:00:08.047Z,1010.34
2018-05-24T02:02:00.901Z,1010.34
2018-05-24T02:03:00.879Z,1010.37
2018-05-24T02:04:53.871Z,1010.34
2018-05-24T02:05:53.834Z,1010.43
2018-05-24T02:07:46.826Z,1010.39
2018-05-24T02:08:46.882Z,1010.44
2018-05-24T02:10:40.009Z,1010.44
2018-05-24T02:11:39.935Z,1010.41
2018-05-24T02:13:32.951Z,1010.40
2018-05-24T02:14:32.896Z,1010.45
2018-05-24T02:16:25.720Z,1010.34
2018-05-24T02:17:25.685Z,1010.36
2018-05-24T02:19:18.535Z,1010.28
2018-05-24T02:20:18.462Z,1010.29
2018-05-24T02:22:11.528Z,1010.30
2018-05-24T02:23:11.313Z,1010.28
2018-05-24T02:25:04.297Z,1010.27
2018-05-24T02:26:04.254Z,1010.27
2018-05-24T02:27:57.264Z,1010.32
2018-05-24T02:28:57.299Z,1010.29
2018-05-24T02:30:50.668Z,1010.30
2018-05-24T02:31:49.991Z,1010.28
2018-05-24T02:33:43.008Z,1010.28
2018-05-24T02:34:42.820Z,1010.28
2018-05-24T02:36:35.789Z,1010.33
2018-05-24T02:37:35.738Z,1010.31
2018-05-24T02:39:28.718Z,1010.29
2018-05-24T02:40:28.669Z,1010.29
2018-05-24T02:42:21.987Z,1010.29
2018-05-24T02:43:21.956Z,1010.31
2018-05-24T02:45:14.974Z,1010.30
2018-05-24T02:46:14.892Z,1010.30
2018-05-24T02:48:07.767Z,1010.30
2018-05-24T02:49:07.735Z,1010.30
2018-05-24T02:51:00.717Z,1010.28
2018-05-24T02:52:00.661Z,1010.28
2018-05-24T02:53:53.700Z,1010.25
2018-05-24T02:54:53.731Z,1010.29
2018-05-24T02:56:46.924Z,1010.32
2018-05-24T02:57:46.723Z,1010.26
2018-05-24T02:59:39.710Z,1010.30
2018-05-24T03:00:39.668Z,1010.30
2018-05-24T03:02:32.668Z,1010.30
2018-05-24T03:03:32.604Z,1010.32
2018-05-24T03:05:25.598Z,1010.29
2018-05-24T03:06:25.538Z,1010.28
2018-05-24T03:08:18.513Z,1010.25
2018-05-24T03:09:18.485Z,1010.25
2018-05-24T03:11:11.488Z,1010.23
2018-05-24T03:12:11.505Z,1010.21
2018-05-24T03:14:04.589Z,1010.21
2018-05-24T03:15:04.542Z,1010.20
2018-05-24T03:16:57.597Z,1010.16
2018-05-24T03:17:57.555Z,1010.16
2018-05-24T03:19:50.804Z,1010.16
2018-05-24T03:20:50.668Z,1010.16
2018-05-24T03:22:43.672Z,1010.18
2018-05-24T03:23:43.609Z,1010.18
2018-05-24T03:25:36.480Z,1010.21
2018-05-24T03:26:36.575Z,1010.17
2018-05-24T03:28:29.728Z,1010.17
2018-05-24T03:29:29.582Z,1010.18
2018-05-24T03:31:22.569Z,1010.25
2018-05-24T03:32:22.559Z,1010.24
2018-05-24T03:34:15.510Z,1010.26
2018-05-24T03:35:15.573Z,1010.26
2018-05-24T03:37:08.304Z,1010.25
2018-05-24T03:38:08.293Z,1010.27
2018-05-24T03:40:01.260Z,1010.29
2018-05-24T03:41:01.210Z,1010.30
2018-05-24T03:42:54.383Z,1010.25
2018-05-24T03:43:54.343Z,1010.28
2018-05-24T03:45:47.176Z,1010.29
2018-05-24T03:46:47.134Z,1010.28
2018-05-24T03:48:40.041Z,1010.28
2018-05-24T03:49:39.929Z,1010.30
2018-05-24T03:51:32.988Z,1010.27
2018-05-24T03:52:32.874Z,1010.26
2018-05-24T03:54:25.844Z,1010.26
2018-05-24T03:55:25.798Z,1010.27
2018-05-24T03:57:18.934Z,1010.27
2018-05-24T03:58:18.850Z,1010.26
2018-05-24T04:00:11.869Z,1010.21
2018-05-24T04:01:11.824Z,1010.15
2018-05-24T04:03:04.868Z,1010.21
2018-05-24T04:04:04.810Z,1010.22
2018-05-24T04:05:57.773Z,1010.21
2018-05-24T04:06:57.596Z,1010.18
2018-05-24T04:08:50.638Z,1010.19
2018-05-24T04:09:50.590Z,1010.17
2018-05-24T04:11:43.575Z,1010.22
2018-05-24T04:12:43.545Z,1010.18
2018-05-24T04:14:36.653Z,1010.17
2018-05-24T04:15:36.460Z,1010.24
2018-05-24T04:17:29.520Z,1010.22
2018-05-24T04:18:29.460Z,1010.23
2018-05-24T04:20:22.433Z,1010.23
2018-05-24T04:21:22.406Z,1010.24
2018-05-24T04:23:15.258Z,1010.23
2018-05-24T04:24:15.178Z,1010.22
2018-05-24T04:26:08.155Z,1010.26
2018-05-24T04:27:08.104Z,1010.27
2018-05-24T04:29:00.975Z,1010.20
2018-05-24T04:30:00.924Z,1010.21
2018-05-24T04:31:53.904Z,1010.16
2018-05-24T04:32:53.908Z,1010.12
2018-05-24T04:34:46.983Z,1010.19
2018-05-24T04:35:46.748Z,1010.20
2018-05-24T04:37:39.690Z,1010.15
2018-05-24T04:38:39.659Z,1010.17
2018-05-24T04:40:32.656Z,1010.11
2018-05-24T04:41:32.632Z,1010.15
2018-05-24T04:43:25.821Z,1010.14
2018-05-24T04:44:25.749Z,1010.15
2018-05-24T04:46:18.598Z,1010.08
2018-05-24T04:47:18.539Z,1010.10
2018-05-24T04:49:11.541Z,1010.10
2018-05-24T04:50:11.478Z,1010.09
2018-05-24T04:52:04.627Z,1010.08
2018-05-24T04:53:04.561Z,1010.10
2018-05-24T04:54:57.553Z,1010.08
2018-05-24T04:55:57.498Z,1010.11
2018-05-24T04:57:50.478Z,1010.17
2018-05-24T04:58:50.448Z,1010.15
2018-05-24T05:00:43.459Z,1010.19
2018-05-24T05:01:43.280Z,1010.19
2018-05-24T05:03:36.154Z,1010.19
2018-05-24T05:04:36.055Z,1010.22
2018-05-24T05:06:29.130Z,1010.22
2018-05-24T05:07:29.184Z,1010.20
2018-05-24T05:09:22.333Z,1010.22
2018-05-24T05:10:22.235Z,1010.25
2018-05-24T05:12:15.235Z,1010.19
2018-05-24T05:13:15.185Z,1010.18
2018-05-24T05:15:08.194Z,1010.20
2018-05-24T05:16:08.130Z,1010.18
2018-05-24T05:18:00.988Z,1010.18
2018-05-24T05:19:00.987Z,1010.18
2018-05-24T05:20:54.003Z,1010.17
2018-05-24T05:21:53.949Z,1010.19
2018-05-24T05:23:46.941Z,1010.14
2018-05-24T05:24:46.906Z,1010.16
2018-05-24T05:26:40.140Z,1010.17
2018-05-24T05:27:40.054Z,1010.18
2018-05-24T05:29:33.041Z,1010.16
2018-05-24T05:30:33.110Z,1010.19
2018-05-24T05:32:26.491Z,1010.19
2018-05-24T05:33:26.163Z,1010.17
2018-05-24T05:35:19.160Z,1010.21
2018-05-24T05:36:19.119Z,1010.22
2018-05-24T05:38:12.253Z,1010.23
2018-05-24T05:39:12.090Z,1010.22
2018-05-24T05:41:05.208Z,1010.29
2018-05-24T05:42:04.980Z,1010.30
2018-05-24T05:43:57.970Z,1010.27
2018-05-24T05:44:57.938Z,1010.30
2018-05-24T05:46:50.986Z,1010.29
2018-05-24T05:47:50.937Z,1010.28
2018-05-24T05:49:43.897Z,1010.28
2018-05-24T05:50:43.840Z,1010.27
2018-05-24T05:52:36.831Z,1010.28
2018-05-24T05:53:36.771Z,1010.28
2018-05-24T05:55:29.595Z,1010.31
2018-05-24T05:56:29.734Z,1010.28
2018-05-24T05:58:22.885Z,1010.27
2018-05-24T05:59:22.641Z,1010.30
2018-05-24T06:01:15.535Z,1010.24
2018-05-24T06:02:15.495Z,1010.25
2018-05-24T06:04:08.501Z,1010.24
2018-05-24T06:05:08.522Z,1010.23
2018-05-24T06:07:01.749Z,1010.19
2018-05-24T06:08:01.579Z,1010.21
2018-05-24T06:09:54.560Z,1010.19
2018-05-24T06:10:54.552Z,1010.17
2018-05-24T06:12:47.519Z,1010.18
2018-05-24T06:13:47.502Z,1010.20
2018-05-24T06:15:40.322Z,1010.17
2018-05-24T06:16:40.281Z,1010.18
2018-05-24T06:18:33.322Z,1010.17
2018-05-24T06:19:33.247Z,1010.20
2018-05-24T06:21:26.236Z,1010.23
2018-05-24T06:22:26.213Z,1010.21
2018-05-24T06:24:19.482Z,1010.22
2018-05-24T06:25:19.363Z,1010.24
2018-05-24T06:27:12.324Z,1010.21
2018-05-24T06:28:12.301Z,1010.21
2018-05-24T06:30:05.321Z,1010.21
2018-05-24T06:31:05.267Z,1010.20
2018-05-24T06:32:58.517Z,1010.18
2018-05-24T06:33:58.456Z,1010.16
2018-05-24T06:35:51.284Z,1010.14
2018-05-24T06:36:51.332Z,1010.16
2018-05-24T06:38:44.097Z,1010.21
2018-05-24T06:39:44.047Z,1010.24
2018-05-24T06:41:37.183Z,1010.21
2018-05-24T06:42:37.138Z,1010.22
2018-05-24T06:44:30.158Z,1010.25
2018-05-24T06:45:30.230Z,1010.23
2018-05-24T06:47:23.426Z,1010.25
2018-05-24T06:48:23.242Z,1010.26
2018-05-24T06:50:16.227Z,1010.31
2018-05-24T06:51:16.182Z,1010.33
2018-05-24T06:53:09.147Z,1010.33
2018-05-24T06:54:09.124Z,1010.36
2018-05-24T06:56:01.963Z,1010.37
2018-05-24T06:57:01.920Z,1010.38
2018-05-24T06:58:54.939Z,1010.35
2018-05-24T06:59:54.922Z,1010.35
2018-05-24T07:01:47.814Z,1010.39
2018-05-24T07:02:47.821Z,1010.41
2018-05-24T07:04:40.853Z,1010.45
2018-05-24T07:05:40.812Z,1010.47
2018-05-24T07:07:33.733Z,1010.50
2018-05-24T07:08:33.582Z,1010.47
2018-05-24T07:10:26.423Z,1010.52
2018-05-24T07:11:26.382Z,1010.54
2018-05-24T07:13:19.394Z,1010.55
2018-05-24T07:14:19.448Z,1010.57
2018-05-24T07:16:12.657Z,1010.62
2018-05-24T07:17:12.548Z,1010.59
2018-05-24T07:19:05.536Z,1010.57
2018-05-24T07:20:05.545Z,1010.61
2018-05-24T07:21:58.787Z,1010.58
2018-05-24T07:22:58.649Z,1010.56
2018-05-24T07:24:51.477Z,1010.53
2018-05-24T07:25:51.443Z,1010.58
2018-05-24T07:27:44.436Z,1010.58
2018-05-24T07:28:44.434Z,1010.59
2018-05-24T07:30:37.708Z,1010.55
2018-05-24T07:31:37.550Z,1010.56
2018-05-24T07:33:30.559Z,1010.54
2018-05-24T07:34:30.509Z,1010.53
2018-05-24T07:36:23.357Z,1010.54
2018-05-24T07:37:23.312Z,1010.56
2018-05-24T07:39:16.524Z,1010.50
2018-05-24T07:40:16.447Z,1010.52
2018-05-24T07:42:09.422Z,1010.49
2018-05-24T07:43:09.382Z,1010.46
2018-05-24T07:45:02.854Z,1010.48
2018-05-24T07:46:02.598Z,1010.50
2018-05-24T07:47:55.602Z,1010.53
2018-05-24T08:04:28.479Z,1010.47
2018-05-24T08:04:54.802Z,1010.47
2018-05-24T08:06:47.801Z,1010.40
2018-05-24T08:07:47.735Z,1010.41
2018-05-24T08:09:40.881Z,1010.40
2018-05-24T08:10:40.838Z,1010.40
2018-05-24T08:12:55.774Z,1010.40
2018-05-24T08:13:33.757Z,1010.38
2018-05-24T08:15:26.581Z,1010.37
2018-05-24T08:16:26.558Z,1010.36
2018-05-24T08:18:19.826Z,1010.38
2018-05-24T08:19:19.651Z,1010.36
2018-05-24T08:21:12.640Z,1010.34
2018-05-24T08:22:12.611Z,1010.31
2018-05-24T08:24:05.610Z,1010.37
2018-05-24T08:25:05.564Z,1010.35
2018-05-24T08:26:58.436Z,1010.38
2018-05-24T08:27:58.353Z,1010.37
2018-05-24T08:32:56.091Z,1010.32
2018-05-24T08:33:56.030Z,1010.32
2018-05-24T08:35:48.861Z,1010.33
2018-05-24T08:36:48.827Z,1010.30
2018-05-24T08:38:41.812Z,1010.30
2018-05-24T08:39:41.770Z,1010.30
2018-05-24T08:41:34.595Z,1010.32
2018-05-24T08:42:34.573Z,1010.33
2018-05-24T08:44:27.566Z,1010.35
2018-05-24T08:45:27.518Z,1010.39
2018-05-24T08:47:20.491Z,1010.31
2018-05-24T08:48:20.452Z,1010.34
2018-05-24T08:50:13.687Z,1010.32
2018-05-24T08:52:26.582Z,1010.37
2018-05-24T08:53:26.628Z,1010.31
2018-05-24T08:55:19.492Z,1010.30
2018-05-24T08:56:19.451Z,1010.23
2018-05-24T08:58:12.417Z,1010.25
2018-05-24T08:59:12.384Z,1010.19
2018-05-24T09:01:05.232Z,1010.09
2018-05-24T09:02:05.172Z,1010.07
2018-05-24T09:03:58.173Z,1010.07
2018-05-24T09:04:58.125Z,1010.08
2018-05-24T09:06:50.957Z,1010.01
2018-05-24T09:07:50.933Z,1010.04
2018-05-24T09:09:43.907Z,1010.06
2018-05-24T09:10:43.865Z,1010.02
2018-05-24T09:12:36.839Z,1010.00
2018-05-24T09:13:36.833Z,1009.98
2018-05-24T09:15:29.643Z,1010.06
2018-05-24T09:16:29.593Z,1010.04
2018-05-24T09:18:22.447Z,1010.04
2018-05-24T09:19:22.402Z,1010.07
2018-05-24T09:21:15.398Z,1010.08
2018-05-24T09:22:15.353Z,1010.02
2018-05-24T09:24:08.652Z,1010.08
2018-05-24T09:25:08.626Z,1010.08
2018-05-24T09:27:01.658Z,1010.06
2018-05-24T09:28:01.606Z,1010.03
2018-05-24T09:29:54.645Z,1009.98
2018-05-24T09:30:54.612Z,1010.03
2018-05-24T09:32:47.507Z,1010.02
2018-05-24T09:33:47.453Z,1010.03
2018-05-24T09:35:40.444Z,1010.06
2018-05-24T09:37:53.682Z,1010.09
2018-05-24T09:38:53.652Z,1010.04
2018-05-24T09:40:46.697Z,1010.09
2018-05-24T09:41:46.644Z,1010.10
2018-05-24T09:43:39.623Z,1010.03
2018-05-24T09:44:39.598Z,1009.97
2018-05-24T09:46:32.901Z,1009.88
2018-05-24T09:47:32.713Z,1009.91
2018-05-24T09:49:25.684Z,1009.94
2018-05-24T09:50:25.654Z,1009.94
2018-05-24T09:52:18.648Z,1010.20
2018-05-24T09:53:18.604Z,1010.32
2018-05-24T09:55:11.518Z,1010.39
2018-05-24T09:56:11.480Z,1010.48
2018-05-24T09:58:04.475Z,1010.42
2018-05-24T09:59:04.423Z,1010.49
2018-05-24T10:00:57.439Z,1010.37
2018-05-24T10:01:57.388Z,1010.12
2018-05-24T10:03:50.593Z,1009.96
2018-05-24T10:04:50.491Z,1009.99
2018-05-24T10:06:43.485Z,1009.85
2018-05-24T10:07:43.463Z,1009.82
2018-05-24T10:09:36.456Z,1009.90
2018-05-24T10:10:36.523Z,1009.91
2018-05-24T10:12:29.454Z,1010.24
2018-05-24T10:13:29.361Z,1010.31
2018-05-24T10:15:22.335Z,1010.32
2018-05-24T10:16:22.407Z,1009.95
2018-05-24T10:18:15.320Z,1009.93
2018-05-24T10:19:15.284Z,1009.90
2018-05-24T10:21:08.275Z,1009.93
2018-05-24T10:22:08.259Z,1009.95
2018-05-24T10:24:01.413Z,1010.32
2018-05-24T10:25:01.374Z,1010.30
2018-05-24T10:26:54.217Z,1009.85
2018-05-24T10:27:54.191Z,1009.94
2018-05-24T10:29:47.204Z,1009.90
2018-05-24T10:30:47.141Z,1010.29
2018-05-24T10:32:40.164Z,1009.79
2018-05-24T10:33:40.145Z,1009.64
2018-05-24T10:35:32.994Z,1009.98
2018-05-24T10:36:32.961Z,1009.99
2018-05-24T10:38:26.019Z,1009.76
2018-05-24T10:39:26.038Z,1009.68
2018-05-24T10:41:18.935Z,1009.65
2018-05-24T10:42:18.900Z,1009.65
2018-05-24T10:44:11.994Z,1009.64
2018-05-24T10:45:11.966Z,1009.66
2018-05-24T10:47:04.932Z,1009.65
2018-05-24T10:48:04.900Z,1009.68
2018-05-24T10:49:57.894Z,1009.65
2018-05-24T10:50:57.979Z,1009.69
2018-05-24T10:52:51.033Z,1009.70
2018-05-24T10:53:50.959Z,1009.73
2018-05-24T10:55:43.910Z,1009.67
2018-05-24T10:56:43.770Z,1009.69
2018-05-24T10:58:36.767Z,1009.65
2018-05-24T10:59:36.847Z,1009.58
2018-05-24T11:01:29.937Z,1009.57
2018-05-24T11:02:29.821Z,1009.55
2018-05-24T11:04:22.851Z,1009.54
2018-05-24T11:05:22.813Z,1009.60
2018-05-24T11:07:15.796Z,1009.55
2018-05-24T11:08:15.756Z,1009.50
2018-05-24T11:10:08.731Z,1009.62
2018-05-24T11:11:08.591Z,1009.60
2018-05-24T11:13:01.609Z,1009.57
2018-05-24T11:14:01.591Z,1009.58
2018-05-24T11:15:54.425Z,1009.51
2018-05-24T11:16:54.465Z,1009.56
2018-05-24T11:18:47.252Z,1009.46
2018-05-24T11:19:47.186Z,1009.50
2018-05-24T11:21:40.119Z,1009.56
2018-05-24T11:22:40.066Z,1009.62
2018-05-24T11:24:33.046Z,1009.61
2018-05-24T11:25:33.023Z,1009.58
2018-05-24T11:27:26.012Z,1009.55
2018-05-24T11:28:25.960Z,1009.53
2018-05-24T11:30:19.146Z,1009.45
2018-05-24T11:31:19.050Z,1009.52
2018-05-24T11:33:12.047Z,1009.48
2018-05-24T11:34:12.016Z,1009.48
2018-05-24T11:36:05.016Z,1009.43
2018-05-24T11:37:05.013Z,1009.40
2018-05-24T11:38:58.064Z,1009.42
2018-05-24T11:39:58.026Z,1009.44
2018-05-24T11:41:51.008Z,1009.48
2018-05-24T11:42:51.018Z,1009.48
2018-05-24T11:44:44.204Z,1009.48
2018-05-24T11:45:44.082Z,1009.46
2018-05-24T11:47:37.087Z,1009.44
2018-05-24T11:48:37.062Z,1009.42
2018-05-24T11:50:30.459Z,1009.43
2018-05-24T11:51:30.347Z,1009.39
2018-05-24T11:53:23.343Z,1009.41
2018-05-24T11:54:23.302Z,1009.41
2018-05-24T11:56:16.292Z,1009.45
2018-05-24T11:57:16.268Z,1009.41
2018-05-24T11:59:09.297Z,1009.42
2018-05-24T12:00:09.260Z,1009.44
2018-05-24T12:02:02.233Z,1009.39
2018-05-24T12:03:02.205Z,1009.38
2018-05-24T12:04:55.190Z,1009.34
2018-05-24T12:05:55.137Z,1009.33
2018-05-24T12:07:48.187Z,1009.31
2018-05-24T12:08:48.128Z,1009.30
2018-05-24T12:10:41.117Z,1009.27
2018-05-24T12:11:41.219Z,1009.25
2018-05-24T12:13:34.407Z,1009.26
2018-05-24T12:14:34.297Z,1009.23
2018-05-24T12:16:27.132Z,1009.22
2018-05-24T12:17:27.092Z,1009.25
2018-05-24T12:19:20.172Z,1009.27
2018-05-24T12:20:20.102Z,1009.27
2018-05-24T12:22:13.032Z,1009.27
2018-05-24T12:23:12.995Z,1009.19
2018-05-24T12:25:06.035Z,1009.19
2018-05-24T12:26:05.994Z,1009.21
2018-05-24T12:27:58.968Z,1009.23
2018-05-24T12:28:58.948Z,1009.21
2018-05-24T12:30:51.813Z,1009.18
2018-05-24T12:31:51.778Z,1009.09
2018-05-24T12:33:44.806Z,1009.09
2018-05-24T12:34:44.749Z,1009.13
2018-05-24T12:36:37.732Z,1009.12
2018-05-24T12:37:37.752Z,1009.11
2018-05-24T12:39:30.953Z,1009.11
2018-05-24T12:40:30.803Z,1009.14
2018-05-24T12:42:23.794Z,1009.09
2018-05-24T12:43:23.758Z,1009.13
2018-05-24T12:46:53.478Z,1009.06
2018-05-24T12:47:48.787Z,1009.09
2018-05-24T12:49:41.699Z,1009.05
2018-05-24T12:50:41.639Z,1009.10
2018-05-24T12:52:34.637Z,1009.03
2018-05-24T12:53:34.615Z,1009.04
2018-05-24T12:55:27.462Z,1009.04
2018-05-24T12:56:27.418Z,1009.05
2018-05-24T12:58:20.379Z,1008.96
2018-05-24T12:59:20.374Z,1009.01
2018-05-24T13:01:13.349Z,1008.96
2018-05-24T13:02:13.278Z,1008.97
2018-05-24T13:04:06.433Z,1008.97
2018-05-24T13:05:06.374Z,1008.95
2018-05-24T13:06:59.373Z,1008.96
2018-05-24T13:07:59.310Z,1008.93
2018-05-24T13:09:52.845Z,1008.92
2018-05-24T13:10:52.400Z,1008.89
2018-05-24T13:12:45.403Z,1008.92
2018-05-24T13:13:45.343Z,1008.85
2018-05-24T13:15:38.198Z,1008.90
2018-05-24T13:16:38.149Z,1008.88
2018-05-24T13:18:31.127Z,1008.88
2018-05-24T13:19:31.102Z,1008.88
2018-05-24T13:21:24.064Z,1008.83
2018-05-24T13:22:23.927Z,1008.90
2018-05-24T13:24:16.943Z,1008.83
2018-05-24T13:25:16.878Z,1008.86
2018-05-24T13:27:09.872Z,1008.85
2018-05-24T13:28:09.834Z,1008.83
2018-05-24T13:30:02.949Z,1008.85
2018-05-24T13:31:02.894Z,1008.82
2018-05-24T13:32:55.870Z,1008.82
2018-05-24T13:33:55.831Z,1008.80
2018-05-24T13:35:48.666Z,1008.81
2018-05-24T13:36:48.650Z,1008.80
2018-05-24T13:38:41.932Z,1008.81
2018-05-24T13:39:41.900Z,1008.83
2018-05-24T13:41:34.748Z,1008.79
2018-05-24T13:42:34.719Z,1008.75
2018-05-24T13:44:27.691Z,1008.81
2018-05-24T13:45:27.642Z,1008.79
2018-05-24T13:47:20.484Z,1008.78
2018-05-24T13:48:20.429Z,1008.78
2018-05-24T13:50:13.437Z,1008.72
2018-05-24T13:51:13.413Z,1008.79
2018-05-24T13:53:06.385Z,1008.73
2018-05-24T13:54:06.353Z,1008.72
2018-05-24T13:55:59.496Z,1008.73
2018-05-24T13:56:59.447Z,1008.76
2018-05-24T13:58:52.454Z,1008.71
2018-05-24T13:59:52.385Z,1008.69
2018-05-24T14:01:45.464Z,1008.70
2018-05-24T14:02:45.344Z,1008.63
2018-05-24T14:04:38.177Z,1008.69
2018-05-24T14:05:38.132Z,1008.68
2018-05-24T14:07:31.122Z,1008.62
2018-05-24T14:08:31.091Z,1008.60
2018-05-24T14:10:24.599Z,1008.54
2018-05-24T14:11:24.064Z,1008.55
2018-05-24T14:13:18.239Z,1008.53
2018-05-24T14:14:18.196Z,1008.53
2018-05-24T14:16:11.608Z,1008.51
2018-05-24T14:17:11.289Z,1008.48
2018-05-24T14:19:04.494Z,1008.52
2018-05-24T14:20:04.416Z,1008.44
2018-05-24T14:21:57.248Z,1008.42
2018-05-24T14:22:57.210Z,1008.40
2018-05-24T14:24:50.225Z,1008.38
2018-05-24T14:25:50.166Z,1008.39
2018-05-24T14:27:43.013Z,1008.34
2018-05-24T14:28:42.982Z,1008.34
2018-05-24T14:30:36.015Z,1008.39
2018-05-24T14:31:35.917Z,1008.31
2018-05-24T14:33:28.909Z,1008.53
2018-05-24T14:34:28.971Z,1008.50
2018-05-24T14:36:22.198Z,1008.47
2018-05-24T14:37:21.997Z,1008.40
2018-05-24T14:39:14.845Z,1008.42
2018-05-24T14:40:14.811Z,1008.47
2018-05-24T14:42:07.830Z,1008.53
2018-05-24T14:43:07.799Z,1008.46
2018-05-24T14:45:01.056Z,1008.49
2018-05-24T14:46:00.890Z,1008.40
2018-05-24T14:47:53.702Z,1008.36
2018-05-24T14:48:53.686Z,1008.29
2018-05-24T14:50:46.681Z,1008.28
2018-05-24T14:51:46.671Z,1008.27
2018-05-24T14:53:39.783Z,1008.21
2018-05-24T14:54:39.757Z,1008.19
2018-05-24T14:56:32.617Z,1008.08
2018-05-24T14:57:32.583Z,1008.10
2018-05-24T14:59:25.669Z,1008.17
2018-05-24T15:00:25.638Z,1008.14
2018-05-24T15:02:18.487Z,1008.15
2018-05-24T15:03:18.463Z,1008.13
2018-05-24T15:05:11.313Z,1008.14
2018-05-24T15:06:11.268Z,1008.15
2018-05-24T15:08:04.277Z,1008.12
2018-05-24T15:09:04.229Z,1008.09
2018-05-24T15:10:57.675Z,1008.03
2018-05-24T15:11:57.528Z,1008.01
2018-05-24T15:13:50.392Z,1008.06
2018-05-24T15:14:50.361Z,1007.95
2018-05-24T15:16:43.337Z,1008.11
2018-05-24T15:17:43.319Z,1007.94
2018-05-24T15:19:36.183Z,1007.93
2018-05-24T15:20:36.132Z,1007.96
2018-05-24T15:22:29.123Z,1008.00
2018-05-24T15:23:29.083Z,1007.96
2018-05-24T15:25:21.909Z,1008.15
2018-05-24T15:26:21.896Z,1008.20
2018-05-24T15:28:14.967Z,1008.23
2018-05-24T15:29:14.909Z,1008.24
2018-05-24T15:31:07.928Z,1008.23
2018-05-24T15:32:07.898Z,1008.21
2018-05-24T15:34:00.896Z,1008.16
2018-05-24T15:35:00.854Z,1008.20
2018-05-24T15:36:54.093Z,1008.10
2018-05-24T15:37:53.973Z,1008.09
2018-05-24T15:39:47.013Z,1007.96
2018-05-24T15:40:47.029Z,1007.97
2018-05-24T15:42:39.994Z,1007.98
2018-05-24T15:43:39.960Z,1007.99
2018-05-24T15:45:32.963Z,1007.99
2018-05-24T15:46:32.818Z,1008.01
2018-05-24T15:48:25.864Z,1008.01
2018-05-24T15:49:25.788Z,1008.00
2018-05-24T15:51:18.775Z,1008.08
2018-05-24T15:52:18.758Z,1008.04
2018-05-24T15:54:11.719Z,1008.05
2018-05-24T15:55:11.589Z,1008.01
2018-05-24T15:57:04.441Z,1008.05
2018-05-24T15:58:04.399Z,1007.99
2018-05-24T15:59:57.426Z,1008.07
2018-05-24T16:00:57.549Z,1008.08
2018-05-24T16:02:50.369Z,1008.07
2018-05-24T16:03:50.336Z,1008.04
2018-05-24T16:05:43.324Z,1008.04
2018-05-24T16:06:43.150Z,1007.98
2018-05-24T16:08:36.168Z,1008.03
2018-05-24T16:09:36.133Z,1008.01
2018-05-24T16:11:29.184Z,1008.06
2018-05-24T16:12:29.116Z,1008.01
2018-05-24T16:14:22.116Z,1008.01
2018-05-24T16:15:21.968Z,1007.99
2018-05-24T16:17:14.960Z,1007.85
2018-05-24T16:18:14.945Z,1007.84
2018-05-24T16:20:08.122Z,1007.90
2018-05-24T16:21:07.947Z,1007.88
2018-05-24T16:23:00.809Z,1007.87
2018-05-24T16:24:00.782Z,1007.88
2018-05-24T16:25:53.685Z,1007.86
2018-05-24T16:26:53.608Z,1007.85
2018-05-24T16:28:46.595Z,1007.83
2018-05-24T16:29:46.566Z,1007.82
2018-05-24T16:31:39.417Z,1007.86
2018-05-24T16:32:39.481Z,1007.79
2018-05-24T16:34:32.224Z,1007.85
2018-05-24T16:35:32.201Z,1007.85
2018-05-24T16:37:25.205Z,1007.81
2018-05-24T16:38:25.167Z,1007.84
2018-05-24T16:40:18.151Z,1007.84
2018-05-24T16:41:18.122Z,1007.78
2018-05-24T16:43:11.366Z,1007.82
2018-05-24T16:44:11.270Z,1007.81
2018-05-24T16:46:04.118Z,1007.84
2018-05-24T16:47:04.066Z,1007.83
2018-05-24T16:48:57.156Z,1007.82
2018-05-24T16:49:57.112Z,1007.81
2018-05-24T16:51:50.017Z,1007.81
2018-05-24T16:52:49.986Z,1007.85
2018-05-24T16:54:42.953Z,1007.82
2018-05-24T16:55:42.927Z,1007.80
2018-05-24T16:57:35.945Z,1007.80
2018-05-24T16:58:35.917Z,1007.77
2018-05-24T17:00:29.063Z,1007.74
2018-05-24T17:01:29.005Z,1007.77
2018-05-24T17:03:22.011Z,1007.77
2018-05-24T17:04:21.948Z,1007.75
2018-05-24T17:06:14.788Z,1007.76
2018-05-24T17:07:14.767Z,1007.74
2018-05-24T17:09:07.948Z,1007.75
2018-05-24T17:10:07.858Z,1007.73
2018-05-24T17:12:00.713Z,1007.71
2018-05-24T17:13:00.667Z,1007.67
2018-05-24T17:14:53.656Z,1007.66
2018-05-24T17:15:53.643Z,1007.71
2018-05-24T17:17:46.747Z,1007.71
2018-05-24T17:18:46.758Z,1007.76
2018-05-24T17:20:39.736Z,1007.75
2018-05-24T17:21:39.672Z,1007.82
2018-05-24T17:23:33.135Z,1007.77
2018-05-24T17:24:32.474Z,1007.76
2018-05-24T17:26:25.793Z,1007.78
2018-05-24T17:27:25.779Z,1007.84
2018-05-24T17:29:18.773Z,1007.90
2018-05-24T17:30:18.722Z,1007.90
2018-05-24T17:32:11.887Z,1007.94
2018-05-24T17:33:11.799Z,1007.92
2018-05-24T17:35:04.791Z,1007.95
2018-05-24T17:36:04.746Z,1007.93
2018-05-24T17:37:57.741Z,1007.92
2018-05-24T17:38:57.723Z,1007.94
2018-05-24T17:40:50.790Z,1007.91
2018-05-24T17:41:50.707Z,1007.97
2018-05-24T17:43:43.698Z,1007.93
2018-05-24T17:44:43.640Z,1007.92
2018-05-24T17:46:36.598Z,1007.93